Pagina principale
Immagini satellite Previsioni 15 giorniClimaMeteomar Cicloni Fulmine AeroportiFAQ Bollettino Informazioni
Tempo : Europa Africa America settentrionale America meridionale Asia Australia-Oceania Altri
Lingue Contatto

Genova, Italia

Sestri

latitudine: 44-25N, longitudine: 008-51E, altezza: 2 m


METAR: LIMJ 181920Z 04010KT 9999 SCT040 BKN060 21/16 Q1016
short-TAF: scaduto (51442 ore)
long-TAF: LIMJ 181700Z 1818/1918 04010KT 9999 SCT030 BKN060 TEMPO 1913/1918 4000 TSRA

Ora: 21:43 (19:43 UTC)

Osservazione

Il bollettino è stato emesso 23 minuti fa, alle 19:20 UTC  
Vento 10 kt da nord-est
Temperature 21°C
Umidità 73%
Pressione 1016 hPa
Visibilità 10 km o più
Nubi sparse ad un'altezza di 4000 ft
Nuvoloso ad un'altezza di 6000 ft

Cambiare le unità

Previsione

Il bollettino è stato emesso 1 ora e 20 minuti fa, alle 18:23 UTC  
Previsione valida dal 18 alle 18 UTC al 19 alle 18 UTC
Vento 10 kt da nord-est
Visibilità 10 km o più
Nubi sparse ad un'altezza di 3000 ft
Nuvoloso ad un'altezza di 6000 ft
Temporaneamente
dal 19 alle 13 UTC al 19 alle 18 UTC
Visibilità 4000 m
temporale pioggia
Le informazioni contenute in questo sito formano oggetto di una clausola di esclusione di responsabilità
Tempo : Europa Africa America settentrionale America meridionale Asia Australia-Oceania Altri
Immagini satellite Previsioni 15 giorniClimaMeteomar Cicloni Fulmine AeroportiFAQ Lingue Contatto Bollettino Informazioni